This is the latest recevied weather packets stored in our database for station/object BARLOW-WX. If no packets are shown the sender has not sent any weather packets the latest 10 day(s).
| Time | Temp. | Humidity | Pressure | Rain* | Wind** | Luminosity | Snow |
|---|---|---|---|---|---|---|---|
| 1788556585 | 25.56° C | 80% | 985.6 hPa | 0 mm | - | - | - |
| 1788555684 | 25.56° C | 80% | 985.6 hPa | 0 mm | - | - | - |
| 1788554783 | 25.56° C | 82% | 985.6 hPa | 0 mm | - | - | - |
| 1788553883 | 25.56° C | 84% | 985.8 hPa | 0 mm | - | - | - |
| 1788552977 | 25° C | 84% | 985.8 hPa | 0 mm | - | - | - |
| 1788552078 | 25° C | 75% | 985.7 hPa | 0 mm | - | - | - |
| 1788551185 | 25° C | 77% | 985.8 hPa | 0 mm | - | - | - |
| 1788550284 | 25° C | 77% | 985.8 hPa | 0 mm | - | - | - |
| 1788549379 | 25.56° C | 77% | 985.8 hPa | 0 mm | - | - | - |
| 1788548477 | 25.56° C | 77% | 985.8 hPa | 0 mm | - | - | - |
| 1788547579 | 25° C | 80% | 986.1 hPa | 0 mm | - | - | - |
| 1788546682 | 25.56° C | 80% | 986.2 hPa | 0 mm | - | - | - |
| 1788545785 | 25° C | 80% | 986.2 hPa | 0 mm | - | - | - |
| 1788544883 | 23.89° C | 80% | 986.2 hPa | 0 mm | - | - | - |
| 1788543984 | 23.33° C | 87% | 986.3 hPa | 1.78 mm | - | - | - |
| 1788543076 | 22.22° C | 87% | 986.6 hPa | 3.81 mm | - | - | - |
| 1788542185 | 22.22° C | 87% | 986.6 hPa | 3.81 mm | - | - | - |
| 1788541277 | 21.67° C | 87% | 986.6 hPa | 3.81 mm | - | - | - |
| 1788540375 | 21.11° C | 90% | 987.5 hPa | 2.79 mm | - | - | - |
| 1788539478 | 21.67° C | 90% | 987.2 hPa | 2.79 mm | - | - | - |
| 1788538579 | 22.78° C | 90% | 987.3 hPa | 0 mm | - | - | - |
| 1788537677 | 22.78° C | 90% | 987.3 hPa | 0 mm | - | - | - |
| 1788536783 | 22.78° C | 96% | 986 hPa | 2.79 mm | - | - | - |
| 1788535883 | 22.22° C | 86% | 987.5 hPa | 2.79 mm | - | - | - |
| 1788534977 | 22.78° C | 86% | 987.6 hPa | 0 mm | - | - | - |
* Rain latest hour (hover to see other rain measurements)
** Current wind speed in m/s (hover to see current wind gust speed)